createdAt,value
2018-05-16T00:00:28.393Z,0
2018-05-16T00:01:08.977Z,0
2018-05-16T00:01:49.928Z,0
2018-05-16T00:02:30.518Z,0
2018-05-16T00:03:11.085Z,0
2018-05-16T00:03:51.645Z,0
2018-05-16T00:04:32.201Z,0
2018-05-16T00:05:12.815Z,0
2018-05-16T00:05:53.375Z,0
2018-05-16T00:06:33.947Z,0
2018-05-16T00:07:14.519Z,0
2018-05-16T00:07:55.099Z,0
2018-05-16T00:08:35.640Z,0
2018-05-16T00:09:16.195Z,0
2018-05-16T00:09:56.788Z,0
2018-05-16T00:10:37.386Z,0
2018-05-16T00:11:17.916Z,0
2018-05-16T00:11:58.503Z,0
2018-05-16T00:12:39.057Z,0
2018-05-16T00:13:19.641Z,0
2018-05-16T00:14:00.221Z,0
2018-05-16T00:14:40.798Z,0
2018-05-16T00:15:21.385Z,0
2018-05-16T00:16:01.942Z,0
2018-05-16T00:16:42.515Z,0
2018-05-16T00:17:23.085Z,0
2018-05-16T00:18:03.660Z,0
2018-05-16T00:18:44.246Z,0
2018-05-16T00:19:24.833Z,0
2018-05-16T00:20:05.370Z,0
2018-05-16T00:20:45.943Z,0
2018-05-16T00:21:26.512Z,0
2018-05-16T00:22:07.082Z,0
2018-05-16T00:22:47.677Z,0
2018-05-16T00:23:28.237Z,0
2018-05-16T00:24:08.789Z,0
2018-05-16T00:24:49.354Z,0
2018-05-16T00:25:29.917Z,0
2018-05-16T00:26:10.483Z,0
2018-05-16T00:26:51.079Z,0
2018-05-16T00:27:31.639Z,0
2018-05-16T00:28:12.202Z,0
2018-05-16T00:28:52.746Z,0
2018-05-16T00:29:33.299Z,0
2018-05-16T00:30:13.856Z,0
2018-05-16T00:30:54.431Z,0
2018-05-16T00:31:34.989Z,0
2018-05-16T00:32:15.596Z,0
2018-05-16T00:32:56.155Z,0
2018-05-16T00:33:36.701Z,0
2018-05-16T00:34:17.255Z,0
2018-05-16T00:34:57.827Z,0
2018-05-16T00:35:38.385Z,0
2018-05-16T00:36:18.940Z,0
2018-05-16T00:36:59.540Z,0
2018-05-16T00:37:40.102Z,0
2018-05-16T00:38:20.675Z,0
2018-05-16T00:39:01.261Z,0
2018-05-16T00:39:41.859Z,0
2018-05-16T00:40:22.466Z,0
2018-05-16T00:41:03.044Z,0
2018-05-16T00:41:43.608Z,0
2018-05-16T00:42:24.215Z,0
2018-05-16T00:43:04.807Z,0
2018-05-16T00:43:45.366Z,0
2018-05-16T00:44:25.934Z,0
2018-05-16T00:45:06.472Z,0
2018-05-16T00:45:47.042Z,0
2018-05-16T00:46:27.614Z,0
2018-05-16T00:47:08.182Z,0
2018-05-16T00:47:48.737Z,0
2018-05-16T00:48:29.322Z,0
2018-05-16T00:49:09.897Z,0
2018-05-16T00:49:50.462Z,0
2018-05-16T00:50:31.012Z,0
2018-05-16T00:51:11.583Z,0
2018-05-16T00:51:52.147Z,0
2018-05-16T00:52:32.729Z,0
2018-05-16T00:53:13.296Z,0
2018-05-16T00:53:53.905Z,0
2018-05-16T00:54:34.466Z,0
2018-05-16T00:55:15.014Z,0
2018-05-16T00:55:55.589Z,0
2018-05-16T00:56:36.153Z,0
2018-05-16T00:57:16.731Z,0
2018-05-16T00:57:57.285Z,0
2018-05-16T00:58:37.866Z,0
2018-05-16T00:59:18.442Z,0
2018-05-16T00:59:58.999Z,0
2018-05-16T01:00:39.553Z,0
2018-05-16T01:01:20.137Z,0
2018-05-16T01:02:00.697Z,0
2018-05-16T01:02:41.255Z,0
2018-05-16T01:03:21.838Z,0
2018-05-16T01:04:02.447Z,0
2018-05-16T01:04:43.012Z,0
2018-05-16T01:05:23.585Z,0
2018-05-16T01:06:04.146Z,0
2018-05-16T01:06:44.739Z,0
2018-05-16T01:07:25.289Z,0
2018-05-16T01:08:05.860Z,0
2018-05-16T01:08:46.448Z,0
2018-05-16T01:09:27.039Z,0
2018-05-16T01:10:07.589Z,0
2018-05-16T01:10:48.140Z,0
2018-05-16T01:11:28.726Z,0
2018-05-16T01:12:09.304Z,0
2018-05-16T01:12:49.861Z,0
2018-05-16T01:13:30.420Z,0
2018-05-16T01:14:10.986Z,0
2018-05-16T01:14:51.613Z,0
2018-05-16T01:15:32.172Z,0
2018-05-16T01:16:12.734Z,0
2018-05-16T01:16:53.290Z,0
2018-05-16T01:17:33.867Z,0
2018-05-16T01:18:14.436Z,0
2018-05-16T01:18:54.996Z,0
2018-05-16T01:19:35.560Z,0
2018-05-16T01:20:16.169Z,0
2018-05-16T01:20:56.736Z,0
2018-05-16T01:21:37.308Z,0
2018-05-16T01:22:17.864Z,0
2018-05-16T01:22:58.429Z,0
2018-05-16T01:23:39.005Z,0
2018-05-16T01:24:19.588Z,0
2018-05-16T01:25:00.152Z,0
2018-05-16T01:25:40.693Z,0
2018-05-16T01:26:21.293Z,0
2018-05-16T01:27:01.881Z,0
2018-05-16T01:27:42.413Z,0
2018-05-16T01:28:23.009Z,0
2018-05-16T01:29:03.590Z,0
2018-05-16T01:29:44.186Z,0
2018-05-16T01:30:24.739Z,0
2018-05-16T01:31:05.303Z,0
2018-05-16T01:31:45.874Z,0
2018-05-16T01:32:26.437Z,0
2018-05-16T01:33:07.013Z,0
2018-05-16T01:33:47.579Z,0
2018-05-16T01:34:28.159Z,0
2018-05-16T01:35:08.734Z,0
2018-05-16T01:35:49.302Z,0
2018-05-16T01:36:29.869Z,0
2018-05-16T01:37:10.483Z,0
2018-05-16T01:37:51.052Z,0
2018-05-16T01:38:31.608Z,0
2018-05-16T01:39:12.183Z,0
2018-05-16T01:39:52.823Z,0
2018-05-16T01:40:33.324Z,0
2018-05-16T01:41:13.864Z,0
2018-05-16T01:41:54.432Z,0
2018-05-16T01:42:35.000Z,0
2018-05-16T01:43:15.586Z,0
2018-05-16T01:43:56.164Z,0
2018-05-16T01:44:36.752Z,0
2018-05-16T01:45:17.303Z,0
2018-05-16T01:45:57.870Z,0
2018-05-16T01:46:38.426Z,0
2018-05-16T01:47:18.975Z,0
2018-05-16T01:47:59.535Z,0
2018-05-16T01:48:40.107Z,0
2018-05-16T01:49:20.665Z,0
2018-05-16T01:50:01.232Z,0
2018-05-16T01:50:41.845Z,0
2018-05-16T01:51:22.432Z,0
2018-05-16T01:52:02.985Z,0
2018-05-16T01:52:43.556Z,0
2018-05-16T01:53:24.119Z,0
2018-05-16T01:54:04.679Z,0
2018-05-16T01:54:45.246Z,0
2018-05-16T01:55:25.791Z,0
2018-05-16T01:56:06.350Z,0
2018-05-16T01:56:46.922Z,0
2018-05-16T01:57:27.496Z,0
2018-05-16T01:58:08.102Z,0
2018-05-16T01:58:48.655Z,0
2018-05-16T01:59:29.225Z,0
2018-05-16T02:00:09.799Z,0
2018-05-16T02:00:50.385Z,0
2018-05-16T02:01:30.935Z,0
2018-05-16T02:02:11.493Z,0
2018-05-16T02:02:52.084Z,0
2018-05-16T02:03:32.637Z,0
2018-05-16T02:04:13.212Z,0
2018-05-16T02:04:53.786Z,0
2018-05-16T02:05:34.373Z,0
2018-05-16T02:06:14.913Z,0
2018-05-16T02:06:55.490Z,0
2018-05-16T02:07:36.051Z,0
2018-05-16T02:08:16.637Z,0
2018-05-16T02:08:57.185Z,0
2018-05-16T02:09:37.726Z,0
2018-05-16T02:10:18.334Z,0
2018-05-16T02:10:58.893Z,0
2018-05-16T02:11:39.507Z,0
2018-05-16T02:12:20.084Z,0
2018-05-16T02:13:00.671Z,0
2018-05-16T02:13:41.218Z,0
2018-05-16T02:14:21.822Z,0
2018-05-16T02:15:02.389Z,0
2018-05-16T02:15:42.938Z,0
2018-05-16T02:16:23.456Z,0
2018-05-16T02:17:04.005Z,0
2018-05-16T02:17:44.543Z,0
2018-05-16T02:18:25.127Z,0
2018-05-16T02:19:05.699Z,0
2018-05-16T02:19:46.268Z,0
2018-05-16T02:20:26.814Z,0
2018-05-16T02:21:07.378Z,0
2018-05-16T02:21:47.925Z,0
2018-05-16T02:22:28.523Z,0
2018-05-16T02:23:09.130Z,0
2018-05-16T02:23:49.696Z,0
2018-05-16T02:24:30.261Z,0
2018-05-16T02:25:10.822Z,0
2018-05-16T02:25:51.380Z,0
2018-05-16T02:26:31.961Z,0
2018-05-16T02:27:12.539Z,0
2018-05-16T02:27:53.077Z,0
2018-05-16T02:28:33.649Z,0
2018-05-16T02:29:14.223Z,0
2018-05-16T02:29:54.770Z,0
2018-05-16T02:30:35.332Z,0
2018-05-16T02:31:15.884Z,0
2018-05-16T02:31:56.452Z,0
2018-05-16T02:32:36.987Z,0
2018-05-16T02:33:17.581Z,0
2018-05-16T02:33:58.167Z,0
2018-05-16T02:34:38.736Z,0
2018-05-16T02:35:19.299Z,0
2018-05-16T02:35:59.880Z,0
2018-05-16T02:36:40.456Z,0
2018-05-16T02:37:21.135Z,0
2018-05-16T02:38:01.611Z,0
2018-05-16T02:38:42.183Z,0
2018-05-16T02:39:22.749Z,0
2018-05-16T02:40:03.319Z,0
2018-05-16T02:40:43.896Z,0
2018-05-16T02:41:24.464Z,0
2018-05-16T02:42:05.017Z,0
2018-05-16T02:42:45.577Z,0
2018-05-16T02:43:26.129Z,0
2018-05-16T02:44:06.692Z,0
2018-05-16T02:44:47.240Z,0
2018-05-16T02:45:27.817Z,0
2018-05-16T02:46:08.380Z,0
2018-05-16T02:46:48.959Z,0
2018-05-16T02:47:29.620Z,0
2018-05-16T02:48:10.082Z,0
2018-05-16T02:48:50.629Z,0
2018-05-16T02:49:31.196Z,0
2018-05-16T02:50:11.754Z,0
2018-05-16T02:50:52.318Z,0
2018-05-16T02:51:32.871Z,0
2018-05-16T02:52:13.447Z,0
2018-05-16T02:52:54.012Z,0
2018-05-16T02:53:34.605Z,0
2018-05-16T02:54:15.166Z,0
2018-05-16T02:54:55.700Z,0
2018-05-16T02:55:36.266Z,0
2018-05-16T02:56:16.854Z,0
2018-05-16T02:56:57.425Z,0
2018-05-16T02:57:38.030Z,0
2018-05-16T02:58:18.590Z,0
2018-05-16T02:58:59.175Z,0
2018-05-16T02:59:39.730Z,0
2018-05-16T03:00:20.336Z,0
2018-05-16T03:01:00.885Z,0
2018-05-16T03:01:41.457Z,0
2018-05-16T03:02:22.045Z,0
2018-05-16T03:03:02.605Z,0
2018-05-16T03:03:43.197Z,0
2018-05-16T03:04:23.781Z,0
2018-05-16T03:05:04.346Z,0
2018-05-16T03:05:44.912Z,0
2018-05-16T03:06:25.497Z,0
2018-05-16T03:07:06.047Z,0
2018-05-16T03:07:46.622Z,0
2018-05-16T03:08:27.184Z,0
2018-05-16T03:09:07.751Z,0
2018-05-16T03:09:48.345Z,0
2018-05-16T03:10:28.913Z,0
2018-05-16T03:11:09.488Z,0
2018-05-16T03:11:50.096Z,0
2018-05-16T03:12:30.596Z,0
2018-05-16T03:13:11.163Z,0
2018-05-16T03:13:51.747Z,0
2018-05-16T03:14:32.314Z,0
2018-05-16T03:15:12.874Z,0
2018-05-16T03:15:53.447Z,0
2018-05-16T03:16:34.045Z,0
2018-05-16T03:17:14.591Z,0
2018-05-16T03:17:55.138Z,0
2018-05-16T03:18:35.743Z,0
2018-05-16T03:19:16.311Z,0
2018-05-16T03:19:56.879Z,0
2018-05-16T03:20:37.426Z,5
2018-05-16T03:21:17.989Z,5
2018-05-16T03:21:58.578Z,5
2018-05-16T03:22:39.124Z,5
2018-05-16T03:23:19.690Z,5
2018-05-16T03:24:00.252Z,5
2018-05-16T03:24:40.848Z,5
2018-05-16T03:25:21.392Z,5
2018-05-16T03:26:01.964Z,5
2018-05-16T03:26:42.549Z,5
2018-05-16T03:27:23.186Z,5
2018-05-16T03:28:03.751Z,5
2018-05-16T03:28:44.363Z,5
2018-05-16T03:29:24.914Z,5
2018-05-16T03:30:05.535Z,10
2018-05-16T03:30:46.044Z,10
2018-05-16T03:31:26.649Z,10
2018-05-16T03:32:08.709Z,10
2018-05-16T03:32:49.260Z,10
2018-05-16T03:33:29.856Z,10
2018-05-16T03:34:10.418Z,10
2018-05-16T03:34:50.997Z,10
2018-05-16T03:35:31.557Z,10
2018-05-16T03:36:12.085Z,10
2018-05-16T03:36:52.641Z,10
2018-05-16T03:37:33.214Z,10
2018-05-16T03:38:13.777Z,10
2018-05-16T03:38:54.365Z,15
2018-05-16T03:39:34.889Z,15
2018-05-16T03:40:15.459Z,10
2018-05-16T03:40:56.037Z,10
2018-05-16T03:41:36.583Z,10
2018-05-16T03:42:17.139Z,10
2018-05-16T03:42:57.717Z,15
2018-05-16T03:43:38.295Z,15
2018-05-16T03:44:19.018Z,15
2018-05-16T03:44:59.577Z,15
2018-05-16T03:45:40.151Z,15
2018-05-16T03:46:20.724Z,15
2018-05-16T03:47:01.296Z,20
2018-05-16T03:47:41.847Z,20
2018-05-16T03:48:22.420Z,20
2018-05-16T03:49:02.997Z,20
2018-05-16T03:49:43.556Z,20
2018-05-16T03:50:24.124Z,20
2018-05-16T03:51:04.680Z,20
2018-05-16T03:51:45.249Z,20
2018-05-16T03:52:25.800Z,25
2018-05-16T03:53:06.368Z,25
2018-05-16T03:53:46.931Z,25
2018-05-16T03:54:27.511Z,25
2018-05-16T03:55:08.077Z,25
2018-05-16T03:55:48.648Z,30
2018-05-16T03:56:29.207Z,30
2018-05-16T03:57:09.770Z,30
2018-05-16T03:57:50.325Z,30
2018-05-16T03:58:30.892Z,30
2018-05-16T03:59:11.457Z,30
2018-05-16T03:59:52.041Z,30
2018-05-16T04:00:32.588Z,30
2018-05-16T04:01:13.116Z,30
2018-05-16T04:01:53.692Z,30
2018-05-16T04:02:34.260Z,30
2018-05-16T04:03:14.831Z,30
2018-05-16T04:03:55.382Z,30
2018-05-16T04:04:35.976Z,30
2018-05-16T04:05:16.553Z,30
2018-05-16T04:05:57.122Z,30
2018-05-16T04:06:37.698Z,30
2018-05-16T04:07:18.277Z,30
2018-05-16T04:07:58.852Z,30
2018-05-16T04:08:39.447Z,30
2018-05-16T04:09:19.984Z,30
2018-05-16T04:10:00.543Z,35
2018-05-16T04:10:41.099Z,35
2018-05-16T04:11:21.660Z,35
2018-05-16T04:12:02.226Z,35
2018-05-16T04:12:42.788Z,35
2018-05-16T04:13:23.389Z,35
2018-05-16T04:14:03.941Z,35
2018-05-16T04:14:44.504Z,35
2018-05-16T04:15:25.064Z,40
2018-05-16T04:16:05.692Z,35
2018-05-16T04:16:46.252Z,40
2018-05-16T04:17:26.817Z,45
2018-05-16T04:18:07.402Z,45
2018-05-16T04:18:47.966Z,45
2018-05-16T04:19:28.535Z,45
2018-05-16T04:20:09.098Z,40
2018-05-16T04:20:49.648Z,45
2018-05-16T04:21:30.196Z,45
2018-05-16T04:22:10.832Z,45
2018-05-16T04:22:51.307Z,45
2018-05-16T04:23:31.870Z,50
2018-05-16T04:24:12.428Z,50
2018-05-16T04:24:53.005Z,45
2018-05-16T04:25:33.589Z,50
2018-05-16T04:26:14.145Z,50
2018-05-16T04:26:54.714Z,50
2018-05-16T04:27:35.271Z,45
2018-05-16T04:28:15.834Z,45
2018-05-16T04:28:56.394Z,45
2018-05-16T04:29:36.961Z,45
2018-05-16T04:30:17.541Z,45
2018-05-16T04:30:58.120Z,45
2018-05-16T04:31:38.650Z,45
2018-05-16T04:32:19.216Z,45
2018-05-16T04:32:59.799Z,45
2018-05-16T04:33:40.515Z,45
2018-05-16T04:34:21.073Z,45
2018-05-16T04:35:01.629Z,45
2018-05-16T04:35:42.375Z,45
2018-05-16T04:36:22.888Z,45
2018-05-16T04:37:03.456Z,45
2018-05-16T04:37:44.137Z,45
2018-05-16T04:38:24.691Z,45
2018-05-16T04:39:05.279Z,45
2018-05-16T04:39:45.936Z,45
2018-05-16T04:40:26.781Z,45
2018-05-16T04:41:07.453Z,45
2018-05-16T04:41:48.125Z,45
2018-05-16T04:42:28.670Z,45
2018-05-16T04:43:09.229Z,50
2018-05-16T04:43:49.830Z,50
2018-05-16T04:44:30.417Z,50
2018-05-16T04:45:10.987Z,50
2018-05-16T04:45:51.553Z,50
2018-05-16T04:46:32.113Z,50
2018-05-16T04:47:12.671Z,50
2018-05-16T04:47:53.262Z,55
2018-05-16T04:48:33.819Z,60
2018-05-16T04:49:14.401Z,60
2018-05-16T04:49:54.959Z,70
2018-05-16T04:50:35.540Z,65
2018-05-16T04:51:16.087Z,70
2018-05-16T04:51:56.651Z,70
2018-05-16T04:52:37.217Z,70
2018-05-16T04:53:17.769Z,70
2018-05-16T04:53:58.324Z,65
2018-05-16T04:54:38.893Z,65
2018-05-16T04:55:19.464Z,60
2018-05-16T04:56:00.040Z,55
2018-05-16T04:56:40.607Z,55
2018-05-16T04:57:21.159Z,50
2018-05-16T04:58:01.723Z,50
2018-05-16T04:58:42.279Z,45
2018-05-16T04:59:23.715Z,45
2018-05-16T05:00:04.260Z,45
2018-05-16T05:00:44.826Z,45
2018-05-16T05:01:25.404Z,50
2018-05-16T05:02:05.968Z,45
2018-05-16T05:02:46.513Z,45
2018-05-16T05:03:27.087Z,45
2018-05-16T05:04:07.651Z,40
2018-05-16T05:04:49.258Z,40
2018-05-16T05:05:29.830Z,40
2018-05-16T05:06:10.388Z,40
2018-05-16T05:06:51.021Z,40
2018-05-16T05:07:31.667Z,45
2018-05-16T05:08:12.236Z,45
2018-05-16T05:08:52.839Z,45
2018-05-16T05:09:33.366Z,50
2018-05-16T05:10:13.944Z,50
2018-05-16T05:10:54.494Z,50
2018-05-16T05:11:35.064Z,50
2018-05-16T05:12:15.627Z,55
2018-05-16T05:12:56.181Z,60
2018-05-16T05:13:36.752Z,65
2018-05-16T05:14:17.333Z,70
2018-05-16T05:14:57.905Z,80
2018-05-16T05:15:38.508Z,90
2018-05-16T05:16:19.059Z,110
2018-05-16T05:16:59.622Z,115
2018-05-16T05:17:40.200Z,95
2018-05-16T05:18:20.884Z,85
2018-05-16T05:19:01.342Z,95
2018-05-16T05:19:41.910Z,125
2018-05-16T05:20:22.494Z,150
2018-05-16T05:21:03.068Z,155
2018-05-16T05:21:43.632Z,155
2018-05-16T05:22:24.295Z,155
2018-05-16T05:23:04.835Z,155
2018-05-16T05:23:45.408Z,145
2018-05-16T05:24:25.964Z,135
2018-05-16T05:25:06.533Z,135
2018-05-16T05:25:47.215Z,130
2018-05-16T05:26:27.797Z,135
2018-05-16T05:27:08.364Z,145
2018-05-16T05:27:48.920Z,150
2018-05-16T05:28:29.491Z,160
2018-05-16T05:29:10.068Z,160
2018-05-16T05:29:50.634Z,150
2018-05-16T05:30:31.200Z,155
2018-05-16T05:31:11.754Z,155
2018-05-16T05:31:52.478Z,160
2018-05-16T05:32:33.023Z,160
2018-05-16T05:33:13.666Z,170
2018-05-16T05:33:54.487Z,175
2018-05-16T05:34:35.236Z,220
2018-05-16T05:35:15.820Z,240
2018-05-16T05:35:56.430Z,275
2018-05-16T05:36:37.036Z,240
2018-05-16T05:37:17.706Z,645
2018-05-16T05:37:58.281Z,1170
2018-05-16T05:38:38.845Z,970
2018-05-16T05:39:19.424Z,450
2018-05-16T05:40:00.013Z,445
2018-05-16T05:40:40.581Z,290
2018-05-16T05:41:21.161Z,235
2018-05-16T05:42:01.753Z,220
2018-05-16T05:42:42.332Z,215
2018-05-16T05:43:22.964Z,205
2018-05-16T05:44:03.473Z,220
2018-05-16T05:44:44.041Z,235
2018-05-16T05:45:24.631Z,270
2018-05-16T05:46:05.209Z,225
2018-05-16T05:46:45.790Z,220
2018-05-16T05:47:26.391Z,220
2018-05-16T05:48:06.982Z,230
2018-05-16T05:48:47.544Z,265
2018-05-16T05:49:28.156Z,300
2018-05-16T05:50:08.751Z,440
2018-05-16T05:50:49.324Z,275
2018-05-16T05:51:29.863Z,270
2018-05-16T05:52:10.425Z,275
2018-05-16T05:52:50.996Z,365
2018-05-16T05:53:31.559Z,585
2018-05-16T05:54:12.107Z,465
2018-05-16T05:54:52.717Z,715
2018-05-16T05:55:33.295Z,280
2018-05-16T05:56:13.887Z,265
2018-05-16T05:56:54.442Z,270
2018-05-16T05:57:34.987Z,280
2018-05-16T05:58:15.553Z,295
2018-05-16T05:58:56.105Z,315
2018-05-16T05:59:36.880Z,390
2018-05-16T06:00:17.414Z,415
2018-05-16T06:00:57.985Z,645
2018-05-16T06:01:38.601Z,455
2018-05-16T06:02:19.184Z,1145
2018-05-16T06:02:59.763Z,1295
2018-05-16T06:03:40.329Z,1280
2018-05-16T06:04:20.890Z,1200
2018-05-16T06:05:01.448Z,1315
2018-05-16T06:05:42.064Z,1165
2018-05-16T06:06:22.694Z,1335
2018-05-16T06:07:03.280Z,1345
2018-05-16T06:07:43.852Z,1155
2018-05-16T06:08:24.411Z,790
2018-05-16T06:09:05.027Z,730
2018-05-16T06:09:45.600Z,735
2018-05-16T06:10:26.166Z,480
2018-05-16T06:11:06.755Z,1015
2018-05-16T06:11:47.307Z,1360
2018-05-16T06:12:28.098Z,1115
2018-05-16T06:13:08.822Z,800
2018-05-16T06:13:49.398Z,560
2018-05-16T06:14:29.980Z,765
2018-05-16T06:15:10.589Z,515
2018-05-16T06:15:51.171Z,625
2018-05-16T06:16:31.747Z,620
2018-05-16T06:17:12.379Z,435
2018-05-16T06:17:52.919Z,475
2018-05-16T06:18:33.485Z,995
2018-05-16T06:19:14.084Z,1460
2018-05-16T06:19:54.729Z,1360
2018-05-16T06:20:35.237Z,1265
2018-05-16T06:21:15.793Z,1400
2018-05-16T06:21:56.354Z,1500
2018-05-16T06:22:36.918Z,1150
2018-05-16T06:23:17.515Z,1400
2018-05-16T06:23:58.062Z,1405
2018-05-16T06:24:38.650Z,1490
2018-05-16T06:25:19.213Z,1050
2018-05-16T06:25:59.781Z,1620
2018-05-16T06:26:40.449Z,975
2018-05-16T06:27:21.203Z,1115
2018-05-16T06:28:01.617Z,455
2018-05-16T06:28:42.355Z,265
2018-05-16T06:29:23.023Z,205
2018-05-16T06:30:03.586Z,185
2018-05-16T06:30:44.138Z,155
2018-05-16T06:31:24.700Z,130
2018-05-16T06:32:05.270Z,120
2018-05-16T06:32:45.854Z,110
2018-05-16T06:33:26.415Z,105
2018-05-16T06:34:06.987Z,95
2018-05-16T06:34:47.592Z,90
2018-05-16T06:35:28.107Z,85
2018-05-16T06:36:08.682Z,80
2018-05-16T06:36:49.260Z,80
2018-05-16T06:37:29.816Z,80
2018-05-16T06:38:10.422Z,90
2018-05-16T06:38:51.003Z,100
2018-05-16T06:39:31.630Z,110
2018-05-16T06:40:12.226Z,110
2018-05-16T06:40:52.774Z,115
2018-05-16T06:41:33.335Z,120
2018-05-16T06:42:13.898Z,115
2018-05-16T06:42:54.447Z,115
2018-05-16T06:43:35.014Z,115
2018-05-16T06:44:15.601Z,105
2018-05-16T06:44:56.181Z,100
2018-05-16T06:45:36.749Z,95
2018-05-16T06:46:17.296Z,95
2018-05-16T06:46:57.870Z,95
2018-05-16T06:47:38.478Z,95
2018-05-16T06:48:19.038Z,100
2018-05-16T06:48:59.650Z,100
2018-05-16T06:49:40.213Z,105
2018-05-16T06:50:20.794Z,110
2018-05-16T06:51:01.359Z,115
2018-05-16T06:51:41.921Z,120
2018-05-16T06:52:22.498Z,125
2018-05-16T06:53:03.084Z,130
2018-05-16T06:53:43.661Z,135
2018-05-16T06:54:24.224Z,140
2018-05-16T06:55:04.780Z,150
2018-05-16T06:55:45.338Z,155
2018-05-16T06:56:25.994Z,170
2018-05-16T06:57:06.462Z,190
2018-05-16T06:57:47.053Z,210
2018-05-16T06:58:27.627Z,260
2018-05-16T06:59:08.191Z,325
2018-05-16T06:59:48.761Z,395
2018-05-16T07:00:29.357Z,435
2018-05-16T07:01:09.918Z,420
2018-05-16T07:01:50.495Z,385
2018-05-16T07:02:31.064Z,350
2018-05-16T07:03:11.627Z,340
2018-05-16T07:03:52.210Z,350
2018-05-16T07:04:32.775Z,350
2018-05-16T07:05:13.342Z,310
2018-05-16T07:05:53.909Z,325
2018-05-16T07:06:34.479Z,375
2018-05-16T07:07:15.078Z,445
2018-05-16T07:07:55.636Z,635
2018-05-16T07:08:36.196Z,850
2018-05-16T07:09:16.779Z,600
2018-05-16T07:09:57.345Z,480
2018-05-16T07:10:37.900Z,475
2018-05-16T07:11:18.528Z,435
2018-05-16T07:11:59.077Z,390
2018-05-16T07:12:39.651Z,390
2018-05-16T07:13:20.230Z,510
2018-05-16T07:14:00.864Z,640
2018-05-16T07:14:41.367Z,695
2018-05-16T07:15:21.925Z,710
2018-05-16T07:16:02.560Z,485
2018-05-16T07:16:43.051Z,435
2018-05-16T07:17:23.618Z,690
2018-05-16T07:18:04.180Z,595
2018-05-16T07:18:44.755Z,615
2018-05-16T07:19:25.318Z,435
2018-05-16T07:20:05.865Z,365
2018-05-16T07:20:46.425Z,510
2018-05-16T07:21:27.001Z,320
2018-05-16T07:22:07.576Z,305
2018-05-16T07:22:48.194Z,375
2018-05-16T07:23:28.719Z,425
2018-05-16T07:24:09.285Z,395
2018-05-16T07:24:49.832Z,380
2018-05-16T07:25:30.407Z,400
2018-05-16T07:26:10.965Z,350
2018-05-16T07:26:51.536Z,400
2018-05-16T07:27:32.109Z,345
2018-05-16T07:28:12.673Z,360
2018-05-16T07:28:53.249Z,520
2018-05-16T07:29:33.817Z,365
2018-05-16T07:30:14.380Z,370
2018-05-16T07:30:54.971Z,325
2018-05-16T07:31:35.553Z,325
2018-05-16T07:32:16.143Z,365
2018-05-16T07:32:56.704Z,350
2018-05-16T07:33:37.310Z,440
2018-05-16T07:34:17.900Z,350
2018-05-16T07:34:58.472Z,350
2018-05-16T07:35:39.040Z,370
2018-05-16T07:36:19.601Z,340
2018-05-16T07:37:00.156Z,350
2018-05-16T07:37:40.719Z,370
2018-05-16T07:38:21.284Z,340
2018-05-16T07:39:01.853Z,355
2018-05-16T07:39:42.412Z,425
2018-05-16T07:40:22.984Z,405
2018-05-16T07:41:03.639Z,415
2018-05-16T07:41:44.131Z,650
2018-05-16T07:42:24.712Z,570
2018-05-16T07:43:05.289Z,630
2018-05-16T07:43:45.857Z,620
2018-05-16T07:44:26.415Z,645
2018-05-16T07:45:06.978Z,655
2018-05-16T07:45:47.575Z,650
2018-05-16T07:46:28.132Z,610
2018-05-16T07:47:08.798Z,610
2018-05-16T07:47:49.264Z,655
2018-05-16T07:48:29.829Z,605
2018-05-16T07:49:10.401Z,380
2018-05-16T07:49:50.972Z,410
2018-05-16T07:50:31.559Z,430
2018-05-16T07:51:12.229Z,315
2018-05-16T07:51:52.706Z,350
2018-05-16T07:52:33.284Z,565
2018-05-16T07:53:13.846Z,560
2018-05-16T07:53:54.426Z,615
2018-05-16T07:54:34.995Z,600
2018-05-16T07:55:15.567Z,585
2018-05-16T07:55:56.189Z,580
2018-05-16T07:56:36.727Z,355
2018-05-16T07:57:17.301Z,285
2018-05-16T07:57:57.879Z,270
2018-05-16T07:58:38.466Z,330
2018-05-16T07:59:19.044Z,255
2018-05-16T07:59:59.618Z,260
2018-05-16T08:00:40.194Z,260
2018-05-16T08:01:20.763Z,265
2018-05-16T08:02:01.352Z,270
2018-05-16T08:02:41.928Z,280
2018-05-16T08:03:22.506Z,285
2018-05-16T08:04:03.086Z,295
2018-05-16T08:04:43.680Z,310
2018-05-16T08:05:24.247Z,290
2018-05-16T08:06:04.840Z,295
2018-05-16T08:06:45.431Z,295
2018-05-16T08:07:26.001Z,270
2018-05-16T08:08:06.591Z,275
2018-05-16T08:08:47.149Z,285
2018-05-16T08:09:27.709Z,300
2018-05-16T08:10:08.310Z,345
2018-05-16T08:10:48.872Z,230
2018-05-16T08:11:29.450Z,220
2018-05-16T08:12:10.043Z,205
2018-05-16T08:12:50.590Z,195
2018-05-16T08:13:31.140Z,195
2018-05-16T08:14:11.753Z,170
2018-05-16T08:14:52.332Z,190
2018-05-16T08:15:32.888Z,150
2018-05-16T08:16:13.484Z,140
2018-05-16T08:16:54.059Z,140
2018-05-16T08:17:34.630Z,135
2018-05-16T08:18:15.200Z,130
2018-05-16T08:18:55.792Z,130
2018-05-16T08:19:36.359Z,125
2018-05-16T08:20:16.902Z,125
2018-05-16T08:20:57.468Z,125
2018-05-16T08:21:38.004Z,130
2018-05-16T08:22:18.593Z,140
2018-05-16T08:22:59.175Z,135
2018-05-16T08:23:39.736Z,140
2018-05-16T08:24:20.309Z,150
2018-05-16T08:25:00.891Z,155
2018-05-16T08:25:41.445Z,160
2018-05-16T08:26:22.017Z,170
2018-05-16T08:27:02.584Z,180
2018-05-16T08:27:43.144Z,190
2018-05-16T08:28:23.719Z,195
2018-05-16T08:29:04.297Z,210
2018-05-16T08:29:44.873Z,205
2018-05-16T08:30:25.430Z,210
2018-05-16T08:31:06.065Z,210
2018-05-16T08:31:46.573Z,205
2018-05-16T08:32:27.161Z,205
2018-05-16T08:33:07.727Z,205
2018-05-16T08:33:48.315Z,210
2018-05-16T08:34:28.870Z,210
2018-05-16T08:35:09.441Z,215
2018-05-16T08:35:50.008Z,220
2018-05-16T08:36:30.570Z,235
2018-05-16T08:37:11.141Z,225
2018-05-16T08:37:51.710Z,225
2018-05-16T08:38:32.295Z,225
2018-05-16T08:39:12.879Z,225
2018-05-16T08:39:53.454Z,225
2018-05-16T08:40:34.012Z,235
2018-05-16T08:41:14.566Z,245
2018-05-16T08:41:55.146Z,250
2018-05-16T08:42:35.719Z,255
2018-05-16T08:43:16.290Z,260
2018-05-16T08:43:56.858Z,265
2018-05-16T08:44:37.430Z,305
2018-05-16T08:45:18.004Z,280
2018-05-16T08:45:58.578Z,320
2018-05-16T08:46:39.161Z,275
2018-05-16T08:47:19.709Z,265
2018-05-16T08:48:00.282Z,275
2018-05-16T08:48:40.854Z,270
2018-05-16T08:49:21.418Z,275
2018-05-16T08:50:02.015Z,275
2018-05-16T08:50:42.581Z,275
2018-05-16T08:51:23.132Z,280
2018-05-16T08:52:03.705Z,300
2018-05-16T08:52:44.357Z,295
2018-05-16T08:53:24.868Z,260
2018-05-16T08:54:05.428Z,290
2018-05-16T08:54:45.978Z,265
2018-05-16T08:55:26.573Z,250
2018-05-16T08:56:07.140Z,240
2018-05-16T08:56:47.708Z,235
2018-05-16T08:57:28.267Z,230
2018-05-16T08:58:08.834Z,230
2018-05-16T08:58:49.398Z,235
2018-05-16T08:59:29.986Z,220
2018-05-16T09:00:10.559Z,220
2018-05-16T09:00:51.121Z,210
2018-05-16T09:01:31.677Z,205
2018-05-16T09:02:12.233Z,210
2018-05-16T09:02:52.782Z,205
2018-05-16T09:03:33.346Z,195
2018-05-16T09:04:13.900Z,195
2018-05-16T09:04:54.468Z,190
2018-05-16T09:05:35.142Z,190
2018-05-16T09:06:15.766Z,180
2018-05-16T09:06:56.340Z,185
2018-05-16T09:07:36.934Z,195
2018-05-16T09:08:17.519Z,180
2018-05-16T09:08:58.111Z,175
2018-05-16T09:09:38.685Z,175
2018-05-16T09:10:19.237Z,175
2018-05-16T09:10:59.812Z,170
2018-05-16T09:11:40.386Z,170
2018-05-16T09:12:20.995Z,165
2018-05-16T09:13:01.564Z,165
2018-05-16T09:13:42.135Z,165
2018-05-16T09:14:22.692Z,160
2018-05-16T09:15:03.259Z,160
2018-05-16T09:15:43.823Z,160
2018-05-16T09:16:24.376Z,160
2018-05-16T09:17:04.944Z,160
2018-05-16T09:17:45.517Z,160
2018-05-16T09:18:26.080Z,160
2018-05-16T09:19:06.657Z,165
2018-05-16T09:19:47.234Z,165
2018-05-16T09:20:27.791Z,165
2018-05-16T09:21:08.349Z,170
2018-05-16T09:21:48.905Z,170
2018-05-16T09:22:29.473Z,170
2018-05-16T09:23:10.041Z,175
2018-05-16T09:23:50.651Z,175
2018-05-16T09:24:31.216Z,180
2018-05-16T09:25:11.797Z,180
2018-05-16T09:25:52.341Z,180
2018-05-16T09:26:32.892Z,175
2018-05-16T09:27:13.477Z,175
2018-05-16T09:27:54.056Z,175
2018-05-16T09:28:34.624Z,175
2018-05-16T09:29:15.194Z,170
2018-05-16T09:29:55.752Z,170
2018-05-16T09:30:36.325Z,170
2018-05-16T09:31:16.903Z,165
2018-05-16T09:31:57.477Z,165
2018-05-16T09:32:38.042Z,170
2018-05-16T09:33:18.617Z,165
2018-05-16T09:33:59.172Z,160
2018-05-16T09:34:39.727Z,160
2018-05-16T09:35:20.307Z,155
2018-05-16T09:36:00.880Z,155
2018-05-16T09:36:41.437Z,155